Time;durP1;ratioP1;P1;durP2;ratioP2;P2;SDS_P1;SDS_P2;PMS_P1;PMS_P2;Temp;Humidity;BMP_temperature;BMP_pressure;BME280_temperature;BME280_humidity;BME280_pressure;Samples;Min_cycle;Max_cycle;Signal;HPM_P1;HPM_P2
2023/05/15 00:00:13;;;;;;;8.02;5.05;;;12.50;79.70;;;;;;5035040;28;20021;-64
2023/05/15 00:02:39;;;;;;;8.52;5.53;;;12.40;79.70;;;;;;5035262;28;20029;-64
2023/05/15 00:05:07;;;;;;;9.57;4.85;;;12.40;79.80;;;;;;5050533;28;20025;-64
2023/05/15 00:07:34;;;;;;;7.78;4.97;;;12.40;79.80;;;;;;5035258;28;20057;-64
2023/05/15 00:10:00;;;;;;;8.05;5.10;;;12.30;79.90;;;;;;5034943;28;20038;-64
2023/05/15 00:12:26;;;;;;;6.78;4.57;;;12.30;80.00;;;;;;5034943;28;20022;-64
2023/05/15 00:14:52;;;;;;;8.65;5.18;;;12.20;80.10;;;;;;5035001;28;20025;-64
2023/05/15 00:17:18;;;;;;;9.25;5.20;;;12.30;80.10;;;;;;5035426;28;20033;-64
2023/05/15 00:19:45;;;;;;;8.18;4.70;;;12.20;80.20;;;;;;5051263;28;20116;-64
2023/05/15 00:22:11;;;;;;;8.77;5.32;;;12.20;80.20;;;;;;5034806;28;20030;-64
2023/05/15 00:24:36;;;;;;;18.27;6.32;;;12.20;80.10;;;;;;5034764;28;20076;-64
2023/05/15 00:27:03;;;;;;;11.00;5.63;;;12.10;80.10;;;;;;5035260;28;20025;-64
2023/05/15 00:29:29;;;;;;;10.43;5.53;;;12.00;80.30;;;;;;5035013;28;20029;-65
2023/05/15 00:31:55;;;;;;;9.27;6.15;;;12.00;80.50;;;;;;5035043;28;20029;-64
2023/05/15 00:34:21;;;;;;;6.57;4.75;;;11.90;80.70;;;;;;5034692;28;20026;-64
2023/05/15 00:36:47;;;;;;;9.13;5.65;;;11.90;80.60;;;;;;5034884;28;20057;-64
2023/05/15 00:39:13;;;;;;;8.38;5.63;;;11.90;80.70;;;;;;5034701;28;20060;-64
2023/05/15 00:41:40;;;;;;;8.07;5.55;;;11.80;80.90;;;;;;5038279;28;20018;-64
2023/05/15 00:44:08;;;;;;;7.00;4.82;;;11.80;80.60;;;;;;5038440;28;20026;-64
2023/05/15 00:46:35;;;;;;;9.35;5.78;;;11.70;80.60;;;;;;5038439;28;20370;-64
2023/05/15 00:49:04;;;;;;;8.18;5.80;;;11.70;80.70;;;;;;5038660;28;20033;-64
2023/05/15 00:51:30;;;;;;;8.23;5.45;;;11.60;80.90;;;;;;5038322;28;20029;-64
2023/05/15 00:53:57;;;;;;;7.78;4.82;;;11.60;81.10;;;;;;5038288;28;20354;-64
2023/05/15 00:56:24;;;;;;;7.95;5.10;;;11.60;81.40;;;;;;5038206;28;20180;-64
2023/05/15 00:58:52;;;;;;;9.77;5.15;;;11.60;81.80;;;;;;5038838;28;20068;-64
2023/05/15 01:01:18;;;;;;;6.68;4.22;;;11.50;81.60;;;;;;5038471;28;20018;-64
2023/05/15 01:03:45;;;;;;;4.70;3.80;;;11.50;81.40;;;;;;5038130;28;20048;-64
2023/05/15 01:06:11;;;;;;;5.43;3.90;;;11.50;81.30;;;;;;5038077;28;20025;-65
2023/05/15 01:08:46;;;;;;;6.00;4.00;;;11.50;81.30;;;;;;5038108;28;20025;-64
2023/05/15 01:11:13;;;;;;;9.10;4.45;;;11.50;81.20;;;;;;5053746;28;20104;-65
2023/05/15 01:13:40;;;;;;;5.47;3.90;;;11.40;81.20;;;;;;5037870;28;20351;-65
2023/05/15 01:16:07;;;;;;;5.82;3.40;;;11.40;81.10;;;;;;5036847;28;20025;-64
2023/05/15 01:18:33;;;;;;;8.27;3.67;;;11.40;81.10;;;;;;5037871;28;20052;-64
2023/05/15 01:21:01;;;;;;;5.90;3.33;;;11.40;81.20;;;;;;5037832;28;20022;-64
2023/05/15 01:23:45;;;;;;;5.53;3.50;;;11.40;81.10;;;;;;5037659;28;20036;-65
2023/05/15 01:26:17;;;;;;;;;;;11.40;81.00;;;;;;5038716;28;20025;-64
2023/05/15 01:28:51;;;;;;;4.45;3.30;;;11.40;81.10;;;;;;5037950;28;19916;-64
2023/05/15 01:31:20;;;;;;;;;;;11.40;81.00;;;;;;5038680;28;20040;-65
2023/05/15 01:33:49;;;;;;;4.38;3.22;;;11.40;81.10;;;;;;5037811;28;19905;-65
2023/05/15 01:36:20;;;;;;;3.67;2.80;;;11.30;80.90;;;;;;5037809;28;20029;-64
2023/05/15 01:38:54;;;;;;;4.85;3.28;;;11.30;80.90;;;;;;5039239;28;20454;-64
2023/05/15 01:41:30;;;;;;;8.32;3.83;;;11.30;80.90;;;;;;5039132;28;20049;-64
2023/05/15 01:44:01;;;;;;;5.90;3.67;;;11.30;81.00;;;;;;5039341;28;20095;-64
2023/05/15 01:46:29;;;;;;;5.45;3.80;;;11.30;81.00;;;;;;5038776;28;20025;-64
2023/05/15 01:48:59;;;;;;;4.38;3.60;;;11.20;81.00;;;;;;5037759;28;20117;-64
2023/05/15 01:51:26;;;;;;;5.55;3.70;;;11.20;81.00;;;;;;5037130;28;20056;-64
2023/05/15 01:53:54;;;;;;;5.68;3.75;;;11.20;81.10;;;;;;5037160;28;20457;-64
2023/05/15 01:56:20;;;;;;;5.60;4.13;;;11.20;81.10;;;;;;5036861;28;20025;-64
2023/05/15 01:58:48;;;;;;;5.03;3.72;;;11.20;81.10;;;;;;5037396;28;20037;-64
2023/05/15 02:01:16;;;;;;;6.85;4.38;;;11.20;81.10;;;;;;5037379;28;20025;-65
2023/05/15 02:03:43;;;;;;;4.85;3.55;;;11.20;81.00;;;;;;5037214;28;20026;-64
2023/05/15 02:06:10;;;;;;;5.28;3.60;;;11.20;81.00;;;;;;5037501;28;20112;-64
2023/05/15 02:08:36;;;;;;;6.53;4.30;;;11.10;81.00;;;;;;5036903;28;20082;-64
2023/05/15 02:11:03;;;;;;;6.60;4.10;;;11.10;81.10;;;;;;5036883;28;20074;-64
2023/05/15 02:13:30;;;;;;;5.50;3.88;;;11.10;81.10;;;;;;5036798;28;20021;-64
2023/05/15 02:15:57;;;;;;;6.65;4.07;;;11.10;81.10;;;;;;5036984;28;20029;-64
2023/05/15 02:18:23;;;;;;;4.38;3.33;;;11.00;81.00;;;;;;5036989;28;20025;-64
2023/05/15 02:20:49;;;;;;;5.78;4.07;;;11.00;81.00;;;;;;5036933;28;20018;-65
2023/05/15 02:23:15;;;;;;;5.13;3.33;;;10.90;81.00;;;;;;5036864;28;20025;-64
2023/05/15 02:25:44;;;;;;;4.47;3.28;;;10.90;81.00;;;;;;5036646;28;20045;-64
2023/05/15 02:28:19;;;;;;;5.22;3.22;;;10.90;81.00;;;;;;5037318;28;20036;-64
2023/05/15 02:31:00;;;;;;;6.28;4.00;;;10.90;81.00;;;;;;5036517;28;20037;-64
2023/05/15 02:34:17;;;;;;;7.45;4.85;;;10.90;81.00;;;;;;5036700;28;20029;-64
2023/05/15 02:36:46;;;;;;;4.93;3.80;;;10.80;81.40;;;;;;5034359;28;20067;-64
2023/05/15 02:39:13;;;;;;;5.97;3.45;;;10.70;81.30;;;;;;5052216;28;20029;-64
2023/05/15 02:41:40;;;;;;;6.18;3.90;;;10.70;81.30;;;;;;5036842;28;20069;-64
2023/05/15 02:44:07;;;;;;;5.70;4.00;;;10.70;81.40;;;;;;5036354;28;20343;-65
2023/05/15 02:46:35;;;;;;;4.85;3.40;;;10.70;81.40;;;;;;5036527;28;20017;-64
2023/05/15 02:49:01;;;;;;;6.65;4.15;;;10.60;81.40;;;;;;5036200;28;20029;-65
2023/05/15 02:51:27;;;;;;;5.10;3.28;;;10.60;81.30;;;;;;5051797;28;20021;-65
2023/05/15 02:53:54;;;;;;;4.30;3.10;;;10.60;81.40;;;;;;5036020;28;20046;-65
2023/05/15 02:56:21;;;;;;;3.70;2.80;;;10.60;81.40;;;;;;5036047;28;20040;-64
2023/05/15 02:58:48;;;;;;;4.05;2.67;;;10.60;81.40;;;;;;5036024;28;20029;-65
2023/05/15 03:01:14;;;;;;;4.32;2.80;;;10.60;81.40;;;;;;5036178;28;20018;-65
2023/05/15 03:03:40;;;;;;;3.35;2.60;;;10.60;81.50;;;;;;5035404;28;20091;-64
2023/05/15 03:06:06;;;;;;;4.70;3.65;;;10.50;81.50;;;;;;5036369;28;20423;-65
2023/05/15 03:08:32;;;;;;;3.58;2.80;;;10.50;81.50;;;;;;5035825;28;20025;-64
2023/05/15 03:10:58;;;;;;;4.50;3.00;;;10.50;81.50;;;;;;5036031;28;20025;-65
2023/05/15 03:13:24;;;;;;;4.55;2.83;;;10.50;81.50;;;;;;5036101;28;20033;-64
2023/05/15 03:15:52;;;;;;;3.97;2.78;;;10.40;81.50;;;;;;5035928;28;20104;-64
2023/05/15 03:18:18;;;;;;;3.58;2.47;;;10.50;81.50;;;;;;5034646;28;20351;-64
2023/05/15 03:20:44;;;;;;;4.97;3.40;;;10.40;81.60;;;;;;5035531;28;20029;-64
2023/05/15 03:23:10;;;;;;;3.58;2.78;;;10.40;81.60;;;;;;5035997;28;20129;-65
2023/05/15 03:25:36;;;;;;;6.50;3.25;;;10.40;81.50;;;;;;5035782;28;20029;-65
2023/05/15 03:28:02;;;;;;;5.38;3.20;;;10.40;81.50;;;;;;5035504;28;20038;-64
2023/05/15 03:30:28;;;;;;;3.97;2.70;;;10.30;81.60;;;;;;5035664;28;20462;-65
2023/05/15 03:32:56;;;;;;;5.50;2.35;;;10.30;81.60;;;;;;5035935;28;20335;-64
2023/05/15 03:35:22;;;;;;;2.70;2.42;;;10.30;81.50;;;;;;5035202;28;20025;-64
2023/05/15 03:37:48;;;;;;;4.25;3.08;;;10.30;81.50;;;;;;5035562;28;20056;-64
2023/05/15 03:40:14;;;;;;;4.68;2.70;;;10.30;81.60;;;;;;5035798;28;20026;-64
2023/05/15 03:42:40;;;;;;;4.90;3.15;;;10.30;81.60;;;;;;5035534;28;20017;-64
2023/05/15 03:45:06;;;;;;;6.45;3.13;;;10.20;81.60;;;;;;5035653;28;20430;-64
2023/05/15 03:47:32;;;;;;;4.45;2.65;;;10.20;81.50;;;;;;5035131;28;20017;-64
2023/05/15 03:49:58;;;;;;;3.70;2.25;;;10.20;81.50;;;;;;5035191;28;20037;-64
2023/05/15 03:52:24;;;;;;;7.18;2.88;;;10.20;81.50;;;;;;5035141;28;20067;-64
2023/05/15 03:54:50;;;;;;;4.15;2.20;;;10.20;81.50;;;;;;5035090;28;20116;-65
2023/05/15 03:57:16;;;;;;;3.70;1.85;;;10.20;81.50;;;;;;5034871;28;20121;-64
2023/05/15 03:59:41;;;;;;;2.58;1.70;;;10.30;81.60;;;;;;5035298;28;20040;-64
2023/05/15 04:02:08;;;;;;;4.18;2.25;;;10.30;81.60;;;;;;5035522;28;20431;-65
2023/05/15 04:04:34;;;;;;;2.35;2.00;;;10.30;81.50;;;;;;5035062;28;20378;-65
2023/05/15 04:07:01;;;;;;;3.67;2.30;;;10.30;81.50;;;;;;5035220;28;20044;-64
2023/05/15 04:09:27;;;;;;;4.55;2.00;;;10.30;81.70;;;;;;5034967;28;20057;-64
2023/05/15 04:11:53;;;;;;;4.50;2.47;;;10.30;81.70;;;;;;5034937;28;20446;-64
2023/05/15 04:14:18;;;;;;;3.45;2.35;;;10.40;81.50;;;;;;5036143;28;20057;-64
2023/05/15 04:16:44;;;;;;;4.05;2.60;;;10.40;81.60;;;;;;5038953;28;20048;-65
2023/05/15 04:19:10;;;;;;;4.63;3.28;;;10.40;81.70;;;;;;5038961;28;20064;-64
2023/05/15 04:21:36;;;;;;;6.15;3.95;;;10.40;81.70;;;;;;5038937;28;20021;-65
2023/05/15 04:24:02;;;;;;;5.03;3.53;;;10.40;81.80;;;;;;5054351;28;20080;-64
2023/05/15 04:26:28;;;;;;;4.88;3.45;;;10.50;81.70;;;;;;5039335;28;20104;-64
2023/05/15 04:28:55;;;;;;;4.20;3.40;;;10.50;81.70;;;;;;5038760;28;20382;-65
2023/05/15 04:31:22;;;;;;;3.75;2.80;;;10.50;81.70;;;;;;5038644;28;20473;-64
2023/05/15 04:33:48;;;;;;;3.20;2.63;;;10.70;81.70;;;;;;5039009;28;20030;-64
2023/05/15 04:36:14;;;;;;;4.30;2.30;;;10.70;81.70;;;;;;5038814;28;20493;-64
2023/05/15 04:38:40;;;;;;;2.38;1.75;;;10.80;81.60;;;;;;5039154;28;20025;-65
2023/05/15 04:41:06;;;;;;;3.35;2.70;;;11.00;81.60;;;;;;5038611;28;20421;-65
2023/05/15 04:43:32;;;;;;;4.15;2.20;;;11.30;82.10;;;;;;5038696;28;20092;-64
2023/05/15 04:45:58;;;;;;;2.28;2.05;;;11.80;82.30;;;;;;5038485;28;20022;-64
2023/05/15 04:48:23;;;;;;;2.60;2.03;;;12.60;82.50;;;;;;5038438;28;20029;-64
2023/05/15 04:50:50;;;;;;;2.05;1.85;;;13.80;81.90;;;;;;5038429;28;20021;-64
2023/05/15 04:53:16;;;;;;;2.20;2.00;;;15.00;80.30;;;;;;5038581;28;20033;-65
2023/05/15 04:55:42;;;;;;;1.70;1.60;;;16.10;78.10;;;;;;5038737;28;20030;-64
2023/05/15 04:58:08;;;;;;;2.50;2.05;;;17.30;76.00;;;;;;5038077;28;20056;-64
2023/05/15 05:00:34;;;;;;;3.05;1.88;;;18.40;74.20;;;;;;5038277;28;20033;-65
2023/05/15 05:03:00;;;;;;;3.60;2.22;;;19.50;72.00;;;;;;5038209;28;20025;-65
2023/05/15 05:05:26;;;;;;;2.58;2.00;;;20.70;68.90;;;;;;5038102;28;20113;-65
2023/05/15 05:07:52;;;;;;;2.85;2.33;;;21.80;66.20;;;;;;5038076;28;20359;-65
2023/05/15 05:10:18;;;;;;;2.10;1.92;;;22.80;63.30;;;;;;5038359;28;20095;-65
2023/05/15 05:12:44;;;;;;;2.58;2.10;;;23.70;61.70;;;;;;5037988;28;20355;-65
2023/05/15 05:15:10;;;;;;;2.20;2.00;;;24.60;59.70;;;;;;5037840;28;20124;-65
2023/05/15 05:17:36;;;;;;;2.50;2.30;;;25.30;57.80;;;;;;5037969;28;20419;-65
2023/05/15 05:20:03;;;;;;;2.65;2.10;;;25.90;56.00;;;;;;5037818;28;20113;-65
2023/05/15 05:22:29;;;;;;;2.40;2.20;;;26.60;54.70;;;;;;5038017;28;20032;-65
2023/05/15 05:24:55;;;;;;;2.83;2.35;;;27.20;53.10;;;;;;5037761;28;20104;-65
2023/05/15 05:27:21;;;;;;;4.55;2.08;;;27.80;52.20;;;;;;5037025;28;20072;-66
2023/05/15 05:29:47;;;;;;;3.75;2.30;;;28.50;50.50;;;;;;5053369;28;20025;-66
2023/05/15 05:32:13;;;;;;;2.45;2.25;;;29.20;49.70;;;;;;5037940;28;20037;-66
2023/05/15 05:34:39;;;;;;;2.35;2.03;;;29.90;48.00;;;;;;5037809;28;20021;-65
2023/05/15 05:37:05;;;;;;;2.00;1.88;;;30.50;47.10;;;;;;5037766;28;20048;-66
2023/05/15 05:39:31;;;;;;;2.17;1.98;;;31.10;46.30;;;;;;5037579;28;20451;-66
2023/05/15 05:41:57;;;;;;;2.40;2.15;;;31.60;45.50;;;;;;5037938;28;20022;-66
2023/05/15 05:44:23;;;;;;;2.72;1.85;;;32.30;44.50;;;;;;5037433;28;20048;-65
2023/05/15 05:46:49;;;;;;;1.90;1.80;;;32.70;43.70;;;;;;5037609;28;20041;-66
2023/05/15 05:49:15;;;;;;;2.28;2.05;;;33.20;42.70;;;;;;5037309;28;20351;-66
2023/05/15 05:51:40;;;;;;;2.42;2.22;;;33.50;41.90;;;;;;5037447;28;20465;-66
2023/05/15 05:54:06;;;;;;;3.10;2.20;;;33.70;40.10;;;;;;5052543;28;20029;-66
2023/05/15 05:56:32;;;;;;;2.60;2.40;;;33.70;40.10;;;;;;5057021;28;20351;-66
2023/05/15 05:59:00;;;;;;;2.80;2.20;;;33.90;40.00;;;;;;5057566;28;20029;-66
2023/05/15 06:01:26;;;;;;;2.72;2.50;;;34.40;39.60;;;;;;5057255;28;20090;-70
2023/05/15 06:03:54;;;;;;;3.47;2.92;;;34.60;36.30;;;;;;5056856;28;20021;-64
2023/05/15 06:06:20;;;;;;;2.90;2.50;;;34.50;36.30;;;;;;5057171;28;20029;-64
2023/05/15 06:08:47;;;;;;;2.88;2.42;;;34.40;36.10;;;;;;5056736;28;20036;-64
2023/05/15 06:11:12;;;;;;;2.65;2.45;;;34.70;36.40;;;;;;5057281;28;20029;-65
2023/05/15 06:13:39;;;;;;;2.47;2.28;;;35.30;35.90;;;;;;5056619;28;20036;-65
2023/05/15 06:16:05;;;;;;;3.60;2.40;;;35.90;35.00;;;;;;5056849;28;20028;-67
2023/05/15 06:18:31;;;;;;;3.47;2.63;;;36.30;34.20;;;;;;5056604;28;20358;-65
2023/05/15 06:20:59;;;;;;;2.50;2.30;;;36.70;33.70;;;;;;5056834;28;20029;-66
2023/05/15 06:23:26;;;;;;;4.53;2.53;;;37.00;33.60;;;;;;5056545;28;20366;-70
2023/05/15 06:25:52;;;;;;;3.40;2.85;;;37.40;32.90;;;;;;5056815;28;20438;-69
2023/05/15 06:28:17;;;;;;;3.30;2.47;;;37.70;31.50;;;;;;5056453;28;20039;-62
2023/05/15 06:30:43;;;;;;;4.10;2.80;;;37.90;31.60;;;;;;5056693;28;20029;-67
2023/05/15 06:33:09;;;;;;;2.63;2.42;;;37.70;30.70;;;;;;5056347;28;20449;-65
2023/05/15 06:35:35;;;;;;;3.05;2.75;;;37.60;29.80;;;;;;5056286;28;20056;-65
2023/05/15 06:38:01;;;;;;;2.58;2.33;;;37.50;29.70;;;;;;5055434;28;20029;-66
2023/05/15 06:40:27;;;;;;;2.53;2.33;;;37.60;29.30;;;;;;5056607;28;20079;-66
2023/05/15 06:42:53;;;;;;;3.95;3.00;;;38.00;28.90;;;;;;5056197;28;20022;-68
2023/05/15 06:45:19;;;;;;;3.15;2.47;;;38.20;28.30;;;;;;5055106;28;20120;-67
2023/05/15 06:47:45;;;;;;;3.60;2.70;;;38.40;27.60;;;;;;5056348;28;20031;-69
2023/05/15 06:50:11;;;;;;;2.97;2.50;;;37.90;27.90;;;;;;5056588;28;20032;-70
2023/05/15 06:52:38;;;;;;;4.20;2.65;;;36.70;28.70;;;;;;5056244;28;20514;-68
2023/05/15 06:55:04;;;;;;;4.05;2.55;;;35.30;29.60;;;;;;5056189;28;20029;-69
2023/05/15 06:57:30;;;;;;;3.53;2.60;;;33.70;31.50;;;;;;5055648;28;20053;-69
2023/05/15 06:59:56;;;;;;;2.97;2.67;;;32.00;33.40;;;;;;5056041;28;20017;-68
2023/05/15 07:02:22;;;;;;;3.20;2.60;;;30.60;35.40;;;;;;5055937;28;20025;-70
2023/05/15 07:04:47;;;;;;;4.07;2.83;;;29.50;37.10;;;;;;5055643;28;20050;-68
2023/05/15 07:07:13;;;;;;;4.82;2.90;;;28.60;37.90;;;;;;5053034;28;20029;-68
2023/05/15 07:09:40;;;;;;;4.07;2.80;;;27.50;39.40;;;;;;5046532;28;20021;-67
2023/05/15 07:12:06;;;;;;;4.93;3.10;;;26.70;41.10;;;;;;5055567;28;20032;-67
2023/05/15 07:14:32;;;;;;;3.83;3.08;;;26.20;42.50;;;;;;5055437;28;20025;-66
2023/05/15 07:16:58;;;;;;;4.50;2.70;;;25.70;43.40;;;;;;5055372;28;20091;-67
2023/05/15 07:19:24;;;;;;;4.35;3.05;;;25.40;44.30;;;;;;5048951;28;20108;-67
2023/05/15 07:21:50;;;;;;;3.55;2.70;;;25.10;45.00;;;;;;5052489;28;20025;-72
2023/05/15 07:24:16;;;;;;;4.45;2.95;;;24.90;45.50;;;;;;5036071;28;20394;-70
2023/05/15 07:26:41;;;;;;;2.88;2.47;;;24.90;45.90;;;;;;5051990;28;20120;-69
2023/05/15 07:29:07;;;;;;;3.63;2.80;;;24.70;46.30;;;;;;5055620;28;20021;-70
2023/05/15 07:31:33;;;;;;;4.35;3.40;;;24.70;46.70;;;;;;5055282;28;20044;-71
2023/05/15 07:33:59;;;;;;;4.30;3.28;;;24.60;46.80;;;;;;5055342;28;20347;-73
2023/05/15 07:36:25;;;;;;;7.03;3.47;;;24.20;47.20;;;;;;5055088;28;20028;-71
2023/05/15 07:38:51;;;;;;;4.13;3.10;;;23.90;47.70;;;;;;5048421;28;20037;-72
2023/05/15 07:41:17;;;;;;;3.75;2.90;;;23.80;48.20;;;;;;5055347;28;20028;-69
2023/05/15 07:43:42;;;;;;;4.68;3.13;;;23.70;48.70;;;;;;5054899;28;20018;-72
2023/05/15 07:46:08;;;;;;;4.32;3.00;;;23.70;48.60;;;;;;5055307;28;20033;-72
2023/05/15 07:48:34;;;;;;;4.22;3.30;;;23.60;48.90;;;;;;5054891;28;20358;-68
2023/05/15 07:50:59;;;;;;;3.78;3.08;;;23.40;49.00;;;;;;5055008;28;20054;-71
2023/05/15 07:53:25;;;;;;;4.45;3.10;;;23.50;49.30;;;;;;5041096;28;20042;-68
2023/05/15 07:55:51;;;;;;;4.13;3.25;;;23.50;49.60;;;;;;5033918;28;20064;-71
2023/05/15 07:58:17;;;;;;;6.18;3.53;;;23.60;49.70;;;;;;5037513;28;20090;-72
2023/05/15 08:00:43;;;;;;;3.47;3.17;;;23.60;49.70;;;;;;5053399;28;20029;-71
2023/05/15 08:03:10;;;;;;;5.70;3.80;;;23.60;49.90;;;;;;5055088;28;20021;-71
2023/05/15 08:05:35;;;;;;;4.80;3.45;;;23.70;50.30;;;;;;5035055;28;20065;-68
2023/05/15 08:08:01;;;;;;;5.10;3.90;;;23.60;49.90;;;;;;5035308;28;20064;-69
2023/05/15 08:10:27;;;;;;;6.53;3.92;;;23.40;49.90;;;;;;5032893;28;20407;-71
2023/05/15 08:12:53;;;;;;;5.88;4.20;;;23.10;50.30;;;;;;5032901;28;20033;-68
2023/05/15 08:15:18;;;;;;;5.93;4.15;;;22.80;50.90;;;;;;5032812;28;20029;-68
2023/05/15 08:17:44;;;;;;;6.30;4.05;;;22.60;51.50;;;;;;5033769;28;20101;-72
2023/05/15 08:20:10;;;;;;;5.90;3.80;;;22.50;51.80;;;;;;5033775;28;20100;-68
2023/05/15 08:22:36;;;;;;;4.97;3.60;;;22.50;52.10;;;;;;5033844;28;20025;-72
2023/05/15 08:25:02;;;;;;;4.75;3.55;;;22.50;52.30;;;;;;5034232;28;20030;-70
2023/05/15 08:27:29;;;;;;;5.35;4.30;;;22.50;52.40;;;;;;5034842;28;20351;-70
2023/05/15 08:29:54;;;;;;;5.75;4.22;;;22.60;52.20;;;;;;5034755;28;20094;-72
2023/05/15 08:32:26;;;;;;;5.10;3.63;;;22.50;52.10;;;;;;5034930;28;20423;-72
2023/05/15 08:34:52;;;;;;;5.05;3.70;;;22.40;52.60;;;;;;5034672;28;20052;-72
2023/05/15 08:37:17;;;;;;;5.43;3.78;;;22.50;52.80;;;;;;5034468;28;20346;-72
2023/05/15 08:39:43;;;;;;;5.13;4.07;;;22.60;52.80;;;;;;5034693;28;20111;-72
2023/05/15 08:42:27;;;;;;;5.03;3.80;;;22.60;52.10;;;;;;5034392;28;20018;-72
2023/05/15 08:44:54;;;;;;;6.05;3.55;;;22.50;52.40;;;;;;5034914;28;20021;-70
2023/05/15 08:47:21;;;;;;;3.95;2.60;;;22.40;52.80;;;;;;5034597;28;20030;-70
2023/05/15 08:50:05;;;;;;;3.63;2.83;;;22.40;53.00;;;;;;5034644;28;20076;-70
2023/05/15 08:52:34;;;;;;;4.55;3.40;;;22.40;52.20;;;;;;5034620;28;20030;-70
2023/05/15 08:55:01;;;;;;;3.65;2.88;;;22.40;52.30;;;;;;5034517;28;20026;-70
2023/05/15 08:57:27;;;;;;;4.13;2.92;;;22.40;52.60;;;;;;5033521;28;20359;-70
2023/05/15 08:59:55;;;;;;;3.45;2.72;;;22.50;52.50;;;;;;5034104;28;20032;-70
2023/05/15 09:02:24;;;;;;;4.28;2.97;;;22.60;52.30;;;;;;5037223;28;20022;-70
2023/05/15 09:04:50;;;;;;;3.90;2.80;;;22.70;52.30;;;;;;5038820;28;20118;-70
2023/05/15 09:07:16;;;;;;;3.60;3.05;;;22.80;52.30;;;;;;5038355;28;20040;-70
2023/05/15 09:09:44;;;;;;;4.47;3.30;;;22.90;52.20;;;;;;5038329;28;20060;-70
2023/05/15 09:12:12;;;;;;;4.20;3.00;;;22.90;52.20;;;;;;5038073;28;20026;-70
2023/05/15 09:14:38;;;;;;;4.95;3.20;;;23.00;52.40;;;;;;5037147;28;20030;-70
2023/05/15 09:17:04;;;;;;;4.80;3.20;;;23.10;52.30;;;;;;5037888;28;20026;-70
2023/05/15 09:19:32;;;;;;;6.30;3.47;;;23.10;52.20;;;;;;5037314;28;20447;-70
2023/05/15 09:22:22;;;;;;;4.55;3.53;;;23.20;52.30;;;;;;5037848;28;20022;-70
2023/05/15 09:24:50;;;;;;;4.07;3.20;;;23.20;52.40;;;;;;5037739;28;20057;-70
2023/05/15 09:27:16;;;;;;;5.80;3.38;;;23.30;52.40;;;;;;5037772;28;20124;-70
2023/05/15 09:29:42;;;;;;;4.40;3.47;;;23.40;52.40;;;;;;5038209;28;20431;-70
2023/05/15 09:32:10;;;;;;;4.65;3.08;;;23.40;52.30;;;;;;5036815;28;20017;-70
2023/05/15 09:34:41;;;;;;;2.63;2.42;;;23.40;52.10;;;;;;5037577;28;20033;-70
2023/05/15 09:37:08;;;;;;;4.07;3.13;;;23.40;52.30;;;;;;5037766;28;20018;-70
2023/05/15 09:39:41;;;;;;;4.75;3.13;;;23.40;52.10;;;;;;5037544;28;20030;-70
2023/05/15 09:42:09;;;;;;;3.57;2.80;;;23.30;52.30;;;;;;5036657;28;20026;-70
2023/05/15 09:44:39;;;;;;;4.53;3.42;;;23.10;52.40;;;;;;5037376;28;20018;-70
2023/05/15 09:47:05;;;;;;;4.13;3.05;;;23.10;52.70;;;;;;5037663;28;20049;-70
2023/05/15 09:49:33;;;;;;;4.28;3.20;;;23.10;52.90;;;;;;5037303;28;20025;-70
2023/05/15 09:52:01;;;;;;;4.22;2.80;;;23.20;53.00;;;;;;5037798;28;20041;-70
2023/05/15 09:54:30;;;;;;;3.85;2.88;;;23.40;52.90;;;;;;5037210;28;20028;-70
2023/05/15 09:57:05;;;;;;;2.47;2.20;;;23.40;52.20;;;;;;5036058;28;20137;-70
2023/05/15 09:59:31;;;;;;;3.67;2.80;;;23.50;52.10;;;;;;5037470;28;20479;-70
2023/05/15 10:01:57;;;;;;;2.92;2.42;;;23.40;52.00;;;;;;5037155;28;20021;-70
2023/05/15 10:04:23;;;;;;;4.75;2.80;;;23.50;51.90;;;;;;5037211;28;20032;-70
2023/05/15 10:06:49;;;;;;;3.20;2.60;;;23.50;52.00;;;;;;5036996;28;20439;-70
2023/05/15 10:09:15;;;;;;;4.95;3.05;;;23.60;52.20;;;;;;5036922;28;20056;-70
2023/05/15 10:11:54;;;;;;;3.95;3.08;;;23.80;52.20;;;;;;5036952;28;20504;-70
2023/05/15 10:14:22;;;;;;;3.28;2.60;;;23.90;51.60;;;;;;5037138;28;20075;-70
2023/05/15 10:16:50;;;;;;;2.88;2.53;;;24.00;51.70;;;;;;5035912;28;20029;-70
2023/05/15 10:19:18;;;;;;;3.20;2.58;;;24.00;51.40;;;;;;5036740;28;20021;-70
2023/05/15 10:21:45;;;;;;;2.30;2.10;;;24.00;51.20;;;;;;5036725;28;20474;-70
2023/05/15 10:24:12;;;;;;;4.10;2.67;;;24.10;51.10;;;;;;5036640;28;20037;-70
2023/05/15 10:26:42;;;;;;;4.50;3.08;;;24.20;51.00;;;;;;5036888;28;20048;-70
2023/05/15 10:29:12;;;;;;;5.05;2.53;;;24.20;50.30;;;;;;5036866;28;20431;-70
2023/05/15 10:31:39;;;;;;;3.20;2.40;;;24.00;50.50;;;;;;5035600;28;20355;-70
2023/05/15 10:34:06;;;;;;;3.50;2.78;;;24.10;50.70;;;;;;5036448;28;20025;-70
2023/05/15 10:36:33;;;;;;;3.10;2.50;;;24.30;50.90;;;;;;5035531;28;20033;-70
2023/05/15 10:39:00;;;;;;;2.78;2.50;;;24.40;50.60;;;;;;5036446;28;20018;-70
2023/05/15 10:41:29;;;;;;;4.50;2.92;;;24.50;50.30;;;;;;5036656;28;20057;-70
2023/05/15 10:43:59;;;;;;;3.42;2.80;;;24.60;50.30;;;;;;5036204;28;20104;-70
2023/05/15 10:46:26;;;;;;;3.38;2.30;;;24.60;50.00;;;;;;5036486;28;20051;-70
2023/05/15 10:48:52;;;;;;;2.28;1.90;;;24.50;50.10;;;;;;5036156;28;20034;-70
2023/05/15 10:51:26;;;;;;;3.20;2.30;;;24.50;50.70;;;;;;5036123;28;20033;-70
2023/05/15 10:53:53;;;;;;;4.65;2.60;;;24.50;50.80;;;;;;5036316;28;20021;-70
2023/05/15 10:56:28;;;;;;;3.53;2.65;;;24.50;50.80;;;;;;5036061;28;20021;-70
2023/05/15 10:58:54;;;;;;;3.83;2.33;;;24.40;50.10;;;;;;5036295;28;20063;-70
2023/05/15 11:01:32;;;;;;;3.15;2.13;;;24.40;50.40;;;;;;5036243;28;20021;-71
2023/05/15 11:04:11;;;;;;;3.00;2.70;;;24.40;50.30;;;;;;5036033;28;20068;-71
2023/05/15 11:06:39;;;;;;;3.25;2.33;;;24.40;49.60;;;;;;5035866;28;20435;-70
2023/05/15 11:09:23;;;;;;;4.50;2.80;;;24.40;50.20;;;;;;5035806;28;20363;-70
2023/05/15 11:11:51;;;;;;;3.53;2.72;;;24.30;49.80;;;;;;5035802;28;20025;-70
2023/05/15 11:14:23;;;;;;;2.50;2.17;;;24.20;50.30;;;;;;5035696;28;20033;-70
2023/05/15 11:16:52;;;;;;;2.60;2.20;;;24.30;50.30;;;;;;5035614;28;20397;-70
2023/05/15 11:19:59;;;;;;;2.50;2.30;;;24.30;50.30;;;;;;5035635;28;20039;-70
2023/05/15 11:22:37;;;;;;;3.67;2.20;;;24.40;49.40;;;;;;5014255;28;20088;-70
2023/05/15 11:25:07;;;;;;;4.35;2.75;;;24.50;49.60;;;;;;5013384;28;20387;-70
2023/05/15 11:27:44;;;;;;;3.55;2.63;;;24.40;48.30;;;;;;5014035;28;20285;-70
2023/05/15 11:30:21;;;;;;;2.83;2.33;;;24.30;48.90;;;;;;5014056;28;20049;-70
2023/05/15 11:33:10;;;;;;;2.85;1.92;;;24.30;49.30;;;;;;5014597;28;20041;-71
2023/05/15 11:35:46;;;;;;;3.03;2.40;;;24.30;49.40;;;;;;5013904;28;20038;-70
2023/05/15 11:38:23;;;;;;;2.28;2.00;;;24.40;49.10;;;;;;5014002;28;20394;-70
2023/05/15 11:40:52;;;;;;;2.30;2.10;;;24.40;49.40;;;;;;5013878;28;20089;-70
2023/05/15 11:43:30;;;;;;;3.00;2.10;;;24.40;49.40;;;;;;5013727;28;20037;-70
2023/05/15 11:46:07;;;;;;;2.53;2.30;;;24.40;49.40;;;;;;5014046;28;20040;-70
2023/05/15 11:48:40;;;;;;;2.50;1.92;;;24.30;49.30;;;;;;5014118;28;20038;-69
2023/05/15 11:51:18;;;;;;;2.78;2.40;;;24.30;49.40;;;;;;5014017;28;20121;-68
2023/05/15 11:53:45;;;;;;;3.85;2.28;;;24.20;49.50;;;;;;5014258;28;20038;-70
2023/05/15 11:56:27;;;;;;;2.28;2.08;;;24.20;49.00;;;;;;5022611;28;20111;-70
2023/05/15 11:58:57;;;;;;;3.72;2.65;;;24.10;49.10;;;;;;5035436;28;20077;-70
2023/05/15 12:01:25;;;;;;;3.13;2.75;;;24.10;49.60;;;;;;5035642;28;20101;-70
2023/05/15 12:03:53;;;;;;;2.85;2.20;;;24.00;49.20;;;;;;5035538;28;20070;-68
2023/05/15 12:06:19;;;;;;;5.63;2.67;;;23.90;49.10;;;;;;5035546;28;20037;-70
2023/05/15 12:08:51;;;;;;;3.00;2.22;;;23.90;49.30;;;;;;5035307;28;20057;-71
2023/05/15 12:11:23;;;;;;;3.90;2.50;;;23.60;49.10;;;;;;5035063;28;20463;-70
2023/05/15 12:13:54;;;;;;;2.50;2.20;;;23.40;49.20;;;;;;5035208;28;20040;-70
2023/05/15 12:16:27;;;;;;;2.47;2.20;;;23.40;49.70;;;;;;5034906;28;20272;-71
2023/05/15 12:19:10;;;;;;;2.92;2.05;;;23.40;49.40;;;;;;5034985;28;20031;-70
2023/05/15 12:24:04;;;;;;;2.42;2.00;;;23.40;50.00;;;;;;5035344;28;20065;-68
2023/05/15 12:26:32;;;;;;;2.95;2.10;;;23.50;49.70;;;;;;5035159;28;20052;-68
2023/05/15 12:28:58;;;;;;;2.35;2.10;;;23.50;49.50;;;;;;5035355;28;20037;-70
2023/05/15 12:31:25;;;;;;;3.67;2.67;;;23.50;49.00;;;;;;5035100;28;20072;-71
2023/05/15 12:33:51;;;;;;;4.65;2.20;;;23.50;49.20;;;;;;5034742;28;20057;-70
2023/05/15 12:36:19;;;;;;;3.03;2.08;;;23.50;49.20;;;;;;5037822;28;20041;-70
2023/05/15 12:38:45;;;;;;;6.30;2.63;;;23.50;49.10;;;;;;5038661;28;20029;-70
2023/05/15 12:41:11;;;;;;;3.05;2.10;;;23.60;48.70;;;;;;5038712;28;20317;-70
2023/05/15 12:43:38;;;;;;;2.22;2.00;;;23.50;48.50;;;;;;5038779;28;20033;-70
2023/05/15 12:46:04;;;;;;;4.25;3.15;;;23.40;48.70;;;;;;5038849;28;20017;-70
2023/05/15 12:48:31;;;;;;;3.58;2.50;;;23.40;48.60;;;;;;5038548;28;20030;-71
2023/05/15 12:51:04;;;;;;;3.40;2.63;;;23.40;49.40;;;;;;5039011;28;20506;-71
2023/05/15 12:53:33;;;;;;;2.75;2.45;;;23.30;49.10;;;;;;5037799;28;20030;-71